Time;durP1;ratioP1;P1;durP2;ratioP2;P2;SDS_P1;SDS_P2;PMS_P1;PMS_P2;Temp;Humidity;BMP_temperature;BMP_pressure;BME280_temperature;BME280_humidity;BME280_pressure;Samples;Min_cycle;Max_cycle;Signal;HPM_P1;HPM_P2
2022/04/17 00:01:11;;;;;;;10.13;6.28;;;;;;;7.47;44.08;102422.81;5035573;28;20136;-77
2022/04/17 00:03:39;;;;;;;8.55;6.13;;;;;;;7.40;44.77;102422.34;5046986;28;20688;-77
2022/04/17 00:06:06;;;;;;;8.52;6.05;;;;;;;7.38;44.54;102429.41;5039135;28;20064;-77
2022/04/17 00:08:33;;;;;;;9.18;5.97;;;;;;;7.33;44.89;102418.41;5037550;28;20049;-77
2022/04/17 00:11:01;;;;;;;11.13;6.13;;;;;;;7.29;44.81;102422.13;5036232;28;20046;-77
2022/04/17 00:13:29;;;;;;;10.07;6.00;;;;;;;7.26;45.04;102417.09;5046642;28;20111;-77
2022/04/17 00:15:56;;;;;;;8.88;5.78;;;;;;;7.31;44.75;102410.69;5038898;28;20060;-78
2022/04/17 00:18:22;;;;;;;8.45;5.80;;;;;;;7.25;45.23;102421.47;5040488;28;20046;-78
2022/04/17 00:20:50;;;;;;;8.32;5.78;;;;;;;7.28;44.80;102428.25;5047752;28;20123;-78
2022/04/17 00:23:17;;;;;;;9.93;5.78;;;;;;;7.21;45.10;102419.97;5036245;28;20140;-78
2022/04/17 00:25:44;;;;;;;9.48;6.15;;;;;;;6.99;45.91;102420.41;5052027;28;20081;-78
2022/04/17 00:28:10;;;;;;;8.65;6.43;;;;;;;7.15;45.62;102411.69;5041523;28;20136;-78
2022/04/17 00:30:37;;;;;;;10.50;6.03;;;;;;;7.19;45.40;102415.78;5038442;28;20825;-78
2022/04/17 00:33:04;;;;;;;10.75;6.18;;;;;;;7.12;45.79;102412.69;5047496;28;20063;-78
2022/04/17 00:35:30;;;;;;;9.13;6.20;;;;;;;7.03;46.91;102409.81;5034878;28;20055;-78
2022/04/17 00:37:58;;;;;;;7.65;5.60;;;;;;;6.91;47.63;102421.78;5043586;28;20053;-78
2022/04/17 00:40:25;;;;;;;8.73;6.57;;;;;;;6.90;48.52;102414.91;5042829;28;20057;-78
2022/04/17 00:42:53;;;;;;;8.77;5.82;;;;;;;6.89;48.46;102413.22;5035896;28;20081;-76
2022/04/17 00:45:19;;;;;;;8.20;5.90;;;;;;;6.84;48.90;102408.28;5046374;28;20061;-77
2022/04/17 00:47:46;;;;;;;8.40;5.75;;;;;;;6.92;48.17;102408.69;5035867;28;20076;-77
2022/04/17 00:50:13;;;;;;;9.57;6.03;;;;;;;6.93;48.28;102412.94;5039871;28;20124;-77
2022/04/17 00:52:40;;;;;;;9.23;6.15;;;;;;;6.86;48.89;102408.19;5043313;28;20570;-77
2022/04/17 00:55:10;;;;;;;7.70;5.72;;;;;;;6.81;49.30;102408.44;5033266;28;20049;-78
2022/04/17 00:57:37;;;;;;;11.27;6.25;;;;;;;6.74;49.47;102412.31;5045518;28;20132;-77
2022/04/17 01:00:05;;;;;;;9.10;6.60;;;;;;;6.72;49.29;102413.34;5037566;28;20099;-77
2022/04/17 01:02:32;;;;;;;9.32;6.38;;;;;;;6.65;50.00;102405.03;5037960;28;20085;-77
2022/04/17 01:04:58;;;;;;;9.68;6.55;;;;;;;6.61;50.29;102394.00;5047524;28;20681;-78
2022/04/17 01:07:26;;;;;;;10.65;7.32;;;;;;;6.63;50.09;102399.09;5035207;28;20139;-78
2022/04/17 01:09:53;;;;;;;7.65;5.90;;;;;;;6.63;50.03;102391.28;5044916;28;20046;-78
2022/04/17 01:12:21;;;;;;;9.32;6.32;;;;;;;6.60;50.17;102388.88;5041529;28;20059;-78
2022/04/17 01:14:49;;;;;;;9.60;5.93;;;;;;;6.60;50.60;102391.50;5046441;28;20098;-77
2022/04/17 01:17:15;;;;;;;9.15;5.57;;;;;;;6.54;50.72;102384.03;5049206;28;20071;-78
2022/04/17 01:19:42;;;;;;;8.90;6.53;;;;;;;6.49;50.70;102379.09;5036723;28;20072;-78
2022/04/17 01:22:11;;;;;;;9.43;5.75;;;;;;;6.42;51.54;102384.72;5042914;28;20372;-77
2022/04/17 01:27:24;;;;;;;9.82;6.38;;;;;;;6.42;51.86;102387.31;5034504;28;20084;-78
2022/04/17 01:29:51;;;;;;;7.88;5.75;;;;;;;6.36;51.47;102387.66;5044282;28;20542;-78
2022/04/17 01:32:18;;;;;;;10.57;5.95;;;;;;;6.41;51.11;102381.28;5041990;28;20057;-77
2022/04/17 01:34:45;;;;;;;7.07;5.30;;;;;;;6.37;52.22;102390.19;5038429;28;20046;-77
2022/04/17 01:37:14;;;;;;;9.85;6.63;;;;;;;6.38;52.12;102380.63;5047049;28;20057;-79
2022/04/17 01:39:41;;;;;;;9.00;6.40;;;;;;;6.38;51.74;102376.25;5036036;28;20053;-77
2022/04/17 01:42:09;;;;;;;11.73;6.22;;;;;;;6.38;52.02;102380.63;5044293;28;20049;-77
2022/04/17 01:44:36;;;;;;;8.30;6.53;;;;;;;6.39;52.46;102377.09;5048395;28;20060;-78
2022/04/17 01:47:03;;;;;;;8.18;6.20;;;;;;;6.33;52.57;102379.09;5038421;28;20053;-78
2022/04/17 01:49:30;;;;;;;8.10;5.93;;;;;;;6.36;52.31;102370.28;5038642;28;20049;-78
2022/04/17 01:51:57;;;;;;;9.52;6.00;;;;;;;6.41;52.54;102370.88;5075971;23;20499;-79
2022/04/17 01:54:27;;;;;;;8.63;6.07;;;;;;;6.45;52.13;102381.94;5021478;28;20117;-79
2022/04/17 01:56:55;;;;;;;8.45;6.38;;;;;;;6.44;52.25;102375.06;5020658;28;20073;-80
2022/04/17 01:59:23;;;;;;;8.07;6.43;;;;;;;6.41;52.66;102364.84;5020465;28;20045;-79
2022/04/17 02:01:51;;;;;;;8.70;6.22;;;;;;;6.38;52.89;102359.81;5020364;28;20080;-81
2022/04/17 02:04:22;;;;;;;9.20;6.15;;;;;;;6.36;53.09;102364.25;5002486;28;20150;-81
2022/04/17 02:06:49;;;;;;;8.32;6.30;;;;;;;6.35;53.24;102360.81;5002426;28;20051;-81
2022/04/17 02:09:17;;;;;;;8.77;6.10;;;;;;;6.36;53.10;102359.91;5001013;28;20078;-82
2022/04/17 02:11:45;;;;;;;10.00;6.20;;;;;;;6.31;52.88;102354.94;5000120;28;20054;-82
2022/04/17 02:14:13;;;;;;;9.30;6.57;;;;;;;6.27;53.74;102365.59;5000216;28;20165;-81
2022/04/17 02:16:40;;;;;;;11.30;6.38;;;;;;;6.25;53.68;102372.66;4999951;28;20120;-81
2022/04/17 02:19:07;;;;;;;10.50;7.20;;;;;;;6.14;54.22;102357.69;4999584;28;20125;-81
2022/04/17 02:21:34;;;;;;;7.85;6.03;;;;;;;6.13;54.86;102355.16;5003255;28;20174;-80
2022/04/17 02:24:01;;;;;;;11.85;6.38;;;;;;;6.08;54.92;102357.19;5003423;28;20134;-80
2022/04/17 02:26:28;;;;;;;9.43;6.63;;;;;;;6.07;55.65;102356.34;5005853;28;20054;-80
2022/04/17 02:28:57;;;;;;;10.40;6.88;;;;;;;5.97;55.99;102356.00;5008751;28;20055;-79
2022/04/17 02:31:24;;;;;;;9.32;6.28;;;;;;;5.95;56.11;102357.00;5001681;28;20058;-80
2022/04/17 02:33:52;;;;;;;10.40;6.47;;;;;;;5.91;56.18;102340.75;5007853;28;20122;-79
2022/04/17 02:36:18;;;;;;;9.10;6.63;;;;;;;5.88;55.66;102351.28;5007370;28;20065;-79
2022/04/17 02:38:45;;;;;;;10.15;6.43;;;;;;;5.82;55.79;102341.22;5000330;28;20150;-81
2022/04/17 02:41:11;;;;;;;8.95;6.25;;;;;;;5.80;56.31;102342.22;5001282;28;20638;-81
2022/04/17 02:43:38;;;;;;;7.63;5.82;;;;;;;5.76;56.60;102338.94;5000905;28;20104;-80
2022/04/17 02:46:06;;;;;;;8.57;6.65;;;;;;;5.80;56.26;102335.25;5000012;28;20051;-80
2022/04/17 02:48:32;;;;;;;11.48;6.65;;;;;;;5.74;56.42;102337.34;5000550;28;20077;-81
2022/04/17 02:50:59;;;;;;;8.18;6.47;;;;;;;5.72;56.29;102336.59;5000535;28;20057;-80
2022/04/17 02:53:26;;;;;;;12.35;6.63;;;;;;;5.63;57.34;102340.56;4999991;28;20141;-80
2022/04/17 02:55:53;;;;;;;8.02;6.63;;;;;;;5.64;56.34;102342.22;5000254;28;20464;-80
2022/04/17 02:58:20;;;;;;;10.95;7.00;;;;;;;5.60;57.00;102338.97;4999135;28;20429;-81
2022/04/17 03:06:15;;;;;;;8.60;6.60;;;;;;;5.59;57.48;102337.28;4999812;28;19928;-81
2022/04/17 03:08:43;;;;;;;7.97;5.97;;;;;;;5.52;57.43;102333.34;4999314;28;20058;-81
2022/04/17 03:11:11;;;;;;;8.65;6.53;;;;;;;5.57;56.61;102335.69;5000169;28;20057;-81
2022/04/17 03:13:37;;;;;;;11.45;6.85;;;;;;;5.52;57.32;102325.53;4999519;28;20058;-81
2022/04/17 03:16:05;;;;;;;8.45;6.10;;;;;;;5.52;57.08;102333.34;4998634;28;20152;-81
2022/04/17 03:18:33;;;;;;;10.23;6.57;;;;;;;5.48;57.48;102326.63;5000001;28;20057;-81
2022/04/17 03:20:59;;;;;;;10.55;6.93;;;;;;;5.44;58.43;102330.31;4999924;28;20055;-81
2022/04/17 03:23:26;;;;;;;9.60;6.70;;;;;;;5.45;57.28;102328.53;5003998;28;20065;-81
2022/04/17 03:25:53;;;;;;;8.57;6.38;;;;;;;5.39;58.41;102331.47;5014412;28;20133;-81
2022/04/17 03:28:20;;;;;;;8.48;6.43;;;;;;;5.34;58.65;102331.69;5014432;28;20072;-82
2022/04/17 03:30:46;;;;;;;10.18;6.70;;;;;;;5.34;58.18;102332.53;5015462;28;20102;-81
2022/04/17 03:33:13;;;;;;;7.78;6.32;;;;;;;5.32;58.46;102330.94;5005409;28;20053;-81
2022/04/17 03:35:41;;;;;;;11.43;6.15;;;;;;;5.29;59.05;102331.09;5000382;28;20505;-81
2022/04/17 03:38:09;;;;;;;8.40;6.30;;;;;;;5.26;58.97;102326.06;5000595;28;20077;-81
2022/04/17 03:40:36;;;;;;;7.97;6.50;;;;;;;5.13;59.85;102325.06;5001697;28;20054;-81
2022/04/17 03:43:02;;;;;;;9.93;6.20;;;;;;;4.95;60.22;102332.03;5001999;28;20085;-82
2022/04/17 03:45:29;;;;;;;8.60;6.25;;;;;;;5.00;59.45;102317.91;4986167;28;20142;-80
2022/04/17 03:47:56;;;;;;;11.68;6.30;;;;;;;5.16;59.29;102311.91;5000582;28;20129;-80
2022/04/17 03:50:23;;;;;;;9.70;6.57;;;;;;;5.12;59.16;102313.00;5000087;28;20046;-81
2022/04/17 03:52:51;;;;;;;11.98;6.30;;;;;;;5.09;60.13;102310.56;4999984;28;20146;-80
2022/04/17 03:55:17;;;;;;;8.15;5.82;;;;;;;5.00;60.66;102314.47;5000779;28;20129;-80
2022/04/17 03:57:44;;;;;;;7.28;6.20;;;;;;;4.92;60.47;102311.41;4999766;28;20133;-81
2022/04/17 04:00:13;;;;;;;9.52;5.90;;;;;;;4.92;61.18;102312.25;4999867;28;20050;-81
2022/04/17 04:02:40;;;;;;;9.68;6.32;;;;;;;4.83;61.25;102315.31;4998476;28;20054;-80
2022/04/17 04:05:08;;;;;;;9.85;6.13;;;;;;;4.87;60.96;102316.00;4998965;28;20052;-81
2022/04/17 04:07:35;;;;;;;9.07;6.38;;;;;;;4.83;61.89;102302.34;4999515;28;20061;-81
2022/04/17 04:10:04;;;;;;;9.07;6.10;;;;;;;4.85;61.97;102305.69;4999796;28;20070;-80
2022/04/17 04:12:33;;;;;;;8.45;6.32;;;;;;;4.81;61.35;102314.56;4999385;28;20114;-82
2022/04/17 04:15:00;;;;;;;9.60;6.15;;;;;;;4.77;61.17;102301.81;4999092;28;20054;-81
2022/04/17 04:17:27;;;;;;;8.00;6.13;;;;;;;4.74;61.45;102308.00;4997859;28;20149;-81
2022/04/17 04:19:53;;;;;;;9.35;6.30;;;;;;;4.74;61.77;102312.34;4998406;28;20050;-80
2022/04/17 04:22:21;;;;;;;8.15;5.97;;;;;;;4.74;61.59;102318.38;4998190;28;20141;-81
2022/04/17 04:24:47;;;;;;;10.30;5.95;;;;;;;4.64;61.51;102306.81;4999039;28;20133;-81
2022/04/17 04:29:59;;;;;;;9.25;5.75;;;;;;;4.66;62.13;102321.38;4998183;28;20177;-82
2022/04/17 04:32:26;;;;;;;7.70;5.90;;;;;;;4.54;62.81;102327.16;4998443;28;20096;-81
2022/04/17 04:34:56;;;;;;;7.97;6.00;;;;;;;4.41;63.56;102325.25;4998863;28;20129;-81
2022/04/17 04:37:22;;;;;;;8.63;5.97;;;;;;;4.31;63.80;102320.50;4999490;28;20050;-81
2022/04/17 04:39:49;;;;;;;8.68;6.35;;;;;;;4.20;64.38;102327.97;4999650;28;20062;-81
2022/04/17 04:42:17;;;;;;;11.05;6.32;;;;;;;4.16;65.01;102323.84;4999396;28;20078;-81
2022/04/17 04:44:43;;;;;;;9.13;6.57;;;;;;;4.17;64.68;102325.53;4999507;28;20149;-79
2022/04/17 04:47:09;;;;;;;9.20;6.10;;;;;;;4.17;65.60;102320.34;4998919;28;20137;-82
2022/04/17 04:49:35;;;;;;;9.93;6.47;;;;;;;4.24;65.17;102310.53;4998746;28;20093;-82
2022/04/17 04:52:04;;;;;;;9.20;6.43;;;;;;;4.37;64.64;102318.53;4999599;28;20058;-81
2022/04/17 04:54:31;;;;;;;8.10;5.93;;;;;;;4.39;64.34;102306.31;4999193;28;20128;-79
2022/04/17 04:56:58;;;;;;;9.48;6.22;;;;;;;4.39;64.47;102312.34;4998997;28;20082;-80
2022/04/17 04:59:27;;;;;;;7.63;5.93;;;;;;;4.43;64.89;102306.09;4997434;28;20114;-80
2022/04/17 05:01:53;;;;;;;9.95;6.20;;;;;;;4.45;64.04;102311.22;4998905;28;20081;-80
2022/04/17 05:04:21;;;;;;;10.05;6.45;;;;;;;4.51;64.18;102305.72;4999047;28;20081;-80
2022/04/17 05:06:48;;;;;;;8.85;6.18;;;;;;;4.53;63.99;102309.94;4998353;28;20046;-81
2022/04/17 05:09:15;;;;;;;9.00;6.57;;;;;;;4.54;64.46;102313.34;4997459;28;20493;-80
2022/04/17 05:11:42;;;;;;;8.20;6.18;;;;;;;4.54;64.11;102310.78;4998287;28;20117;-80
2022/04/17 05:14:10;;;;;;;8.73;6.32;;;;;;;4.59;63.84;102320.00;4997222;28;20137;-80
2022/04/17 05:16:38;;;;;;;7.95;6.50;;;;;;;4.63;64.38;102311.16;4999507;28;20054;-80
2022/04/17 05:19:20;;;;;;;10.77;7.60;;;;;;;4.68;63.94;102307.50;5000844;28;20776;-80
2022/04/17 05:21:48;;;;;;;9.18;6.28;;;;;;;4.69;64.76;102307.41;5001795;28;20081;-79
2022/04/17 05:24:16;;;;;;;9.95;6.40;;;;;;;4.74;64.23;102304.56;5001630;28;20145;-81
2022/04/17 05:26:42;;;;;;;7.43;6.03;;;;;;;4.77;64.42;102307.00;5001883;28;20050;-80
2022/04/17 05:29:09;;;;;;;9.38;6.13;;;;;;;4.79;64.81;102303.41;5001711;28;20457;-80
2022/04/17 05:31:36;;;;;;;7.22;6.03;;;;;;;4.81;65.03;102298.16;5001549;28;20085;-81
2022/04/17 05:34:03;;;;;;;10.52;6.35;;;;;;;4.90;64.95;102298.53;5000726;28;20157;-80
2022/04/17 05:36:30;;;;;;;12.55;5.97;;;;;;;5.01;64.56;102297.97;5000847;28;20134;-81
2022/04/17 05:38:57;;;;;;;8.88;6.22;;;;;;;5.13;64.13;102301.69;5005115;28;20058;-79
2022/04/17 05:41:26;;;;;;;9.07;5.50;;;;;;;5.24;63.90;102307.97;5008332;28;20046;-79
2022/04/17 05:43:54;;;;;;;8.13;5.70;;;;;;;5.38;63.75;102312.44;5003685;28;20193;-81
2022/04/17 05:46:21;;;;;;;8.23;6.35;;;;;;;5.50;63.13;102309.19;5008692;28;20086;-79
2022/04/17 05:48:47;;;;;;;6.75;5.00;;;;;;;5.75;62.21;102315.66;5009437;28;20061;-79
2022/04/17 05:51:16;;;;;;;10.40;5.38;;;;;;;6.56;60.34;102311.97;5005648;28;20130;-79
2022/04/17 05:53:42;;;;;;;7.07;5.38;;;;;;;7.62;56.65;102297.63;5001160;28;20114;-80
2022/04/17 05:56:09;;;;;;;6.60;4.75;;;;;;;8.37;53.97;102295.47;5002502;28;20086;-80
2022/04/17 05:58:36;;;;;;;6.20;4.72;;;;;;;8.47;52.99;102293.06;4999993;28;20093;-80
2022/04/17 06:01:03;;;;;;;7.15;5.07;;;;;;;8.73;52.32;102292.16;5000081;28;20081;-78
2022/04/17 06:03:30;;;;;;;5.75;4.50;;;;;;;8.98;50.95;102284.31;4999035;28;20133;-83
2022/04/17 06:05:57;;;;;;;7.10;4.80;;;;;;;9.27;49.76;102291.91;5002674;28;20089;-82
2022/04/17 06:08:25;;;;;;;5.85;4.70;;;;;;;9.31;49.34;102291.59;4999808;28;20132;-82
2022/04/17 06:10:52;;;;;;;8.43;4.70;;;;;;;9.83;48.59;102298.34;5004774;28;20042;-81
2022/04/17 06:13:19;;;;;;;5.82;4.82;;;;;;;10.02;48.52;102297.00;5005757;28;20050;-82
2022/04/17 06:15:46;;;;;;;7.78;4.97;;;;;;;10.21;46.97;102294.75;5002668;28;20133;-84
2022/04/17 06:18:13;;;;;;;7.05;4.63;;;;;;;10.05;46.86;102291.53;5001319;28;20055;-81
2022/04/17 06:20:41;;;;;;;7.68;5.07;;;;;;;10.67;46.03;102294.75;5001716;28;20114;-83
2022/04/17 06:23:07;;;;;;;6.20;4.38;;;;;;;10.12;46.85;102293.59;5001132;28;20050;-82
2022/04/17 06:25:35;;;;;;;6.75;4.72;;;;;;;10.28;46.25;102298.59;5001692;28;20109;-82
2022/04/17 06:28:02;;;;;;;5.40;4.30;;;;;;;10.24;47.09;102299.75;5001930;28;20114;-83
2022/04/17 06:30:29;;;;;;;7.43;4.93;;;;;;;10.25;45.93;102289.19;5003303;28;20106;-82
2022/04/17 06:32:56;;;;;;;5.97;4.57;;;;;;;10.45;45.54;102294.69;5003235;28;20484;-82
2022/04/17 06:35:23;;;;;;;8.55;4.68;;;;;;;10.56;45.63;102285.09;5004623;28;20062;-82
2022/04/17 06:37:51;;;;;;;9.15;4.97;;;;;;;10.96;44.60;102290.72;5010365;28;20062;-80
2022/04/17 06:40:19;;;;;;;7.50;4.43;;;;;;;10.45;44.92;102289.44;5002427;28;20081;-82
2022/04/17 06:42:48;;;;;;;7.00;4.35;;;;;;;11.14;44.21;102283.25;5002400;28;20057;-82
2022/04/17 06:45:15;;;;;;;5.82;4.40;;;;;;;10.99;44.43;102279.19;5001714;28;20133;-82
2022/04/17 06:47:42;;;;;;;6.07;4.40;;;;;;;11.13;43.94;102280.75;5002078;28;20625;-82
2022/04/17 06:50:09;;;;;;;5.20;4.40;;;;;;;11.34;43.29;102279.09;5001653;28;20141;-81
2022/04/17 06:52:36;;;;;;;10.15;5.18;;;;;;;11.07;43.32;102278.59;5002332;28;20078;-82
2022/04/17 06:55:05;;;;;;;7.43;4.20;;;;;;;10.81;43.78;102270.97;5001300;28;20084;-82
2022/04/17 06:57:33;;;;;;;8.05;4.40;;;;;;;11.11;43.38;102272.16;5001757;28;20054;-84
2022/04/17 07:00:06;;;;;;;5.38;4.30;;;;;;;11.20;42.79;102284.56;5001276;28;20088;-84
2022/04/17 07:02:33;;;;;;;6.75;4.68;;;;;;;11.38;42.91;102263.91;5002657;28;20579;-83
2022/04/17 07:31:30;;;;;;;8.18;4.50;;;;;;;12.66;40.63;102241.09;4957831;28;20057;-84
2022/04/17 07:54:21;;;;;;;6.68;4.38;;;;;;;14.15;37.43;102246.28;4998135;22;20131;-78
2022/04/17 07:56:54;;;;;;;6.10;4.57;;;;;;;12.75;38.93;102234.25;5013959;28;20585;-79
2022/04/17 07:59:25;;;;;;;7.13;4.32;;;;;;;13.13;39.27;102225.66;5012899;28;20056;-79
2022/04/17 08:02:11;;;;;;;7.43;4.18;;;;;;;13.44;38.99;102240.44;5012351;28;20093;-79
2022/04/17 08:04:46;;;;;;;9.30;4.68;;;;;;;13.31;38.34;102223.22;4992242;28;20062;-79
2022/04/17 08:25:46;;;;;;;5.63;4.40;;;;;;;12.76;39.60;102218.31;4824407;29;20479;-81
2022/04/17 08:36:07;;;;;;;;;;;;;;;;;;;;;
2022/04/17 09:05:28;;;;;;;5.28;4.03;;;;;;;12.94;39.08;102182.59;5123200;22;20053;-78
2022/04/17 09:57:37;;;;;;;5.30;3.97;;;;;;;14.20;36.04;102128.22;5026231;28;20057;-79
2022/04/17 10:00:12;;;;;;;5.15;4.30;;;;;;;14.36;36.12;102114.44;5039852;28;20519;-80
2022/04/17 10:02:39;;;;;;;5.40;3.72;;;;;;;14.40;36.04;102122.88;5024810;28;20155;-79
2022/04/17 10:05:08;;;;;;;5.63;4.10;;;;;;;14.59;35.25;102117.56;5033138;28;20097;-78
2022/04/17 10:07:37;;;;;;;6.32;3.90;;;;;;;14.81;35.46;102106.63;5033855;28;20111;-80
2022/04/17 10:10:05;;;;;;;7.18;3.95;;;;;;;15.07;34.16;102098.00;5031661;28;20095;-81
2022/04/17 10:12:34;;;;;;;5.53;3.67;;;;;;;14.51;36.36;102099.03;5029757;28;20053;-81
2022/04/17 10:15:05;;;;;;;4.43;3.53;;;;;;;14.87;34.78;102087.59;5038457;28;20076;-80
2022/04/17 10:17:32;;;;;;;4.80;3.72;;;;;;;14.66;34.98;102092.28;5029291;28;20053;-79
2022/04/17 10:20:03;;;;;;;6.07;3.90;;;;;;;14.84;34.27;102101.06;5025851;28;20109;-79
2022/04/17 10:22:34;;;;;;;6.05;3.67;;;;;;;14.96;34.21;102092.94;5041568;28;20472;-80
2022/04/17 10:25:17;;;;;;;4.57;3.70;;;;;;;15.00;34.35;102075.84;5048095;28;20050;-82
2022/04/17 10:31:46;;;;;;;6.30;3.90;;;;;;;15.90;33.66;102065.88;5032693;28;20050;-80
2022/04/17 10:43:58;;;;;;;5.32;3.30;;;;;;;15.17;32.72;102053.91;4936305;29;20080;-81
2022/04/17 10:46:27;;;;;;;5.07;3.30;;;;;;;15.23;31.64;102048.03;5022850;28;20049;-81
2022/04/17 10:48:55;;;;;;;6.40;3.15;;;;;;;14.90;31.75;102053.03;5036624;28;20054;-81
2022/04/17 10:51:27;;;;;;;3.95;3.00;;;;;;;15.27;31.69;102065.22;5044478;28;20048;-81
2022/04/17 10:54:03;;;;;;;5.80;3.08;;;;;;;15.08;30.92;102053.03;5045208;28;20076;-81
2022/04/17 10:56:32;;;;;;;4.60;3.35;;;;;;;15.05;31.31;102039.34;5043256;28;20071;-81
2022/04/17 10:59:10;;;;;;;4.68;3.42;;;;;;;15.49;30.80;102038.38;5042161;28;20053;-80
2022/04/17 11:02:08;;;;;;;4.13;3.15;;;;;;;15.51;31.34;102036.41;5042126;28;20212;-79
2022/04/17 11:04:53;;;;;;;5.85;3.08;;;;;;;15.77;31.93;102017.13;5040100;28;20056;-83
2022/04/17 11:07:31;;;;;;;5.38;3.70;;;;;;;15.49;31.78;102022.56;5034276;28;20163;-81
2022/04/17 11:14:08;;;;;;;5.50;3.38;;;;;;;16.67;32.41;102011.22;5025853;28;20065;-83
2022/04/17 11:16:49;;;;;;;6.00;3.60;;;;;;;16.08;32.69;102005.06;5039028;28;20049;-81
2022/04/17 11:19:19;;;;;;;8.27;3.47;;;;;;;16.35;32.52;102003.22;5033692;28;20068;-80
2022/04/17 11:21:49;;;;;;;4.45;3.50;;;;;;;15.83;32.63;102008.59;5032266;28;20068;-80
2022/04/17 11:24:16;;;;;;;6.53;3.90;;;;;;;16.30;31.17;102000.22;5028520;28;20141;-79
2022/04/17 11:27:11;;;;;;;3.55;3.22;;;;;;;16.46;32.46;101998.47;5032346;28;20069;-81
2022/04/17 11:29:41;;;;;;;4.28;3.33;;;;;;;16.71;32.67;101990.59;5037581;28;20045;-79
2022/04/17 11:32:46;;;;;;;4.57;3.30;;;;;;;16.43;32.19;101995.31;5042549;28;20052;-80
2022/04/17 11:35:16;;;;;;;5.75;3.50;;;;;;;16.43;32.55;101984.75;5038733;28;20132;-79
2022/04/17 11:37:52;;;;;;;5.65;3.65;;;;;;;17.40;32.15;101973.41;5040461;28;20105;-80
2022/04/17 11:40:20;;;;;;;5.78;3.28;;;;;;;16.84;32.84;101973.28;5039982;28;20091;-80
2022/04/17 11:42:48;;;;;;;5.00;3.40;;;;;;;16.77;32.72;101960.88;5033311;28;20052;-81
2022/04/17 11:45:17;;;;;;;5.55;3.08;;;;;;;17.13;32.34;101962.19;5033148;28;20079;-80
2022/04/17 11:47:47;;;;;;;4.47;3.35;;;;;;;17.19;31.63;101961.50;5029222;28;20576;-81
2022/04/17 11:50:21;;;;;;;4.47;3.05;;;;;;;16.78;31.95;101959.88;5030623;28;20038;-80
2022/04/17 11:52:55;;;;;;;5.93;3.20;;;;;;;16.74;31.03;101950.63;5028657;28;20072;-82
2022/04/17 11:55:26;;;;;;;4.30;3.40;;;;;;;16.16;31.86;101947.00;5032217;28;20099;-81
2022/04/17 11:57:58;;;;;;;4.30;3.30;;;;;;;17.21;31.25;101938.38;5031404;28;20080;-83
2022/04/17 12:08:15;;;;;;;3.63;2.92;;;;;;;17.23;30.39;101906.47;5025594;28;20570;-84
2022/04/17 12:17:39;;;;;;;4.72;3.20;;;;;;;16.88;30.46;101897.94;2417499;26;20058;-82
2022/04/17 12:44:46;;;;;;;5.78;3.33;;;;;;;17.71;30.45;101859.69;5066087;23;20057;-84
2022/04/17 12:47:27;;;;;;;4.38;3.10;;;;;;;17.54;30.69;101862.38;5055418;28;20057;-82
2022/04/17 13:15:51;;;;;;;3.45;2.80;;;;;;;18.06;27.55;101814.13;4860426;28;20155;-85
2022/04/17 13:18:30;;;;;;;3.83;2.70;;;;;;;17.75;28.00;101822.09;4991403;28;20057;-85
2022/04/17 13:21:09;;;;;;;4.53;2.65;;;;;;;17.87;27.54;101814.59;5038785;28;20119;-85
2022/04/17 13:24:36;;;;;;;3.38;2.58;;;;;;;17.98;27.17;101808.06;5037810;28;20130;-84
2022/04/17 13:27:32;;;;;;;4.88;2.80;;;;;;;18.09;27.66;101811.13;5019207;28;20050;-84
2022/04/17 13:30:01;;;;;;;5.68;3.03;;;;;;;17.73;27.79;101783.56;5027242;28;20057;-82
2022/04/17 14:54:29;;;;;;;5.20;3.00;;;;;;;18.45;25.80;101668.22;5045275;23;20049;-84
2022/04/17 14:56:58;;;;;;;3.72;2.72;;;;;;;18.40;25.87;101662.66;5037705;28;20128;-85
2022/04/17 14:59:25;;;;;;;3.33;2.58;;;;;;;18.36;24.96;101660.56;5038840;28;20608;-85
2022/04/17 15:01:53;;;;;;;3.10;2.70;;;;;;;18.48;24.30;101645.81;5039393;28;20049;-86
2022/04/17 15:04:21;;;;;;;4.10;2.50;;;;;;;18.39;24.46;101644.28;5038347;28;20059;-85
2022/04/17 15:06:47;;;;;;;3.75;2.72;;;;;;;18.28;24.25;101636.78;5037212;28;20060;-85
2022/04/17 15:09:14;;;;;;;3.35;2.58;;;;;;;18.25;25.11;101632.69;5038312;28;20129;-86
2022/04/17 15:11:44;;;;;;;3.08;2.42;;;;;;;18.52;25.03;101634.66;5036736;28;20113;-85
2022/04/17 15:14:10;;;;;;;5.45;3.35;;;;;;;18.42;25.29;101620.91;5037494;28;20049;-85
2022/04/17 15:16:37;;;;;;;2.80;2.38;;;;;;;18.44;26.30;101616.22;5036496;28;20128;-85
2022/04/17 15:19:04;;;;;;;4.40;2.90;;;;;;;18.56;26.12;101624.53;5036787;28;20129;-85
2022/04/17 15:21:31;;;;;;;4.43;3.10;;;;;;;18.51;26.28;101613.66;5035648;28;20073;-86
2022/04/17 15:23:57;;;;;;;6.10;2.60;;;;;;;18.39;24.60;101610.66;5037374;28;20072;-85
2022/04/17 15:26:24;;;;;;;3.45;2.47;;;;;;;18.44;25.17;101600.31;5041301;28;20212;-85
2022/04/17 15:28:52;;;;;;;4.80;2.50;;;;;;;18.47;25.84;101610.53;5042188;28;20053;-85
2022/04/17 15:31:19;;;;;;;4.45;3.10;;;;;;;18.61;25.94;101598.31;5043427;28;20056;-87
2022/04/17 15:33:47;;;;;;;4.53;2.28;;;;;;;18.37;24.41;101607.38;5046550;28;20147;-86
2022/04/17 15:39:09;;;;;;;3.33;2.50;;;;;;;18.29;25.37;101588.91;5036011;28;20484;-85
2022/04/17 15:41:36;;;;;;;4.38;2.65;;;;;;;18.24;25.14;101597.41;5047917;28;20065;-86
2022/04/17 15:49:34;;;;;;;6.13;2.80;;;;;;;18.40;23.93;101592.94;5045071;28;20578;-84
2022/04/17 15:52:06;;;;;;;3.80;2.53;;;;;;;18.29;24.96;101583.63;5037339;28;20042;-88
2022/04/17 15:54:33;;;;;;;5.22;3.10;;;;;;;18.34;24.88;101585.72;5026002;28;20057;-87
2022/04/17 15:56:59;;;;;;;3.38;2.58;;;;;;;18.27;24.99;101574.22;5031823;28;20064;-87
2022/04/17 15:59:28;;;;;;;4.90;2.53;;;;;;;18.22;25.94;101575.56;5022575;28;20473;-87
2022/04/17 16:01:54;;;;;;;3.45;2.65;;;;;;;18.35;25.27;101577.59;5045269;28;20053;-87
2022/04/17 16:04:21;;;;;;;3.50;2.50;;;;;;;18.21;24.06;101573.94;5050612;28;20080;-85
2022/04/17 16:06:48;;;;;;;2.80;2.28;;;;;;;18.28;24.62;101571.38;5050738;28;20056;-85
2022/04/17 16:09:15;;;;;;;3.50;2.40;;;;;;;18.19;25.38;101567.19;5051670;28;20060;-85
2022/04/17 16:11:43;;;;;;;6.03;3.45;;;;;;;18.17;25.17;101559.41;5050329;28;20076;-89
2022/04/17 16:31:11;;;;;;;4.10;2.75;;;;;;;18.08;26.24;101551.72;6228478;22;20024;-83
2022/04/17 16:34:21;;;;;;;4.25;3.20;;;;;;;17.80;26.49;101525.91;6223268;23;20382;-84
2022/04/17 16:47:54;;;;;;;3.50;2.85;;;;;;;17.79;26.02;101534.03;5081999;27;1427574;-81
2022/04/17 16:50:20;;;;;;;3.05;2.28;;;;;;;17.73;25.06;101540.84;5099488;28;20068;-82
2022/04/17 16:52:47;;;;;;;3.58;2.60;;;;;;;17.79;25.98;101545.44;5079871;28;20048;-81
2022/04/17 16:55:14;;;;;;;3.67;2.80;;;;;;;17.73;26.74;101537.38;5083224;28;20500;-81
2022/04/17 17:00:27;;;;;;;3.50;2.38;;;;;;;17.66;27.33;101524.03;5061603;28;20436;-79
2022/04/17 17:02:55;;;;;;;4.25;2.88;;;;;;;17.55;26.71;101525.28;5061226;28;20123;-81
2022/04/17 17:05:22;;;;;;;3.70;2.60;;;;;;;17.53;26.89;101524.63;5062656;28;20072;-81
2022/04/17 18:00:04;;;;;;;3.67;2.97;;;;;;;16.06;29.85;101494.88;4856037;29;20052;-82
2022/04/17 18:41:50;;;;;;;6.65;3.83;;;;;;;14.53;33.41;101505.31;4987333;28;20060;-83
2022/04/17 18:48:11;;;;;;;;;;;;;;;;;;;;;
2022/04/17 18:55:18;;;;;;;4.15;3.30;;;;;;;13.98;34.83;101486.47;4886394;29;20062;-84
2022/04/17 19:02:07;;;;;;;4.40;3.50;;;;;;;14.13;34.54;101505.13;4887133;29;20057;-86
2022/04/17 19:04:53;;;;;;;5.07;3.60;;;;;;;13.96;34.83;101496.31;4943851;29;20649;-83
2022/04/17 19:08:00;;;;;;;6.15;3.58;;;;;;;14.07;34.71;101505.75;4951710;29;20115;-85
2022/04/17 19:21:37;;;;;;;5.57;3.28;;;;;;;13.66;35.98;101518.69;5030518;28;20053;-83
2022/04/17 20:24:29;;;;;;;;;;;;;;;;;;;;;
2022/04/17 21:08:03;;;;;;;6.43;4.43;;;;;;;11.39;41.16;101469.72;4781130;29;20066;-78
2022/04/17 21:17:51;;;;;;;;;;;;;;;;;;;;;
2022/04/17 21:23:55;;;;;;;6.95;4.20;;;;;;;10.67;44.62;101470.16;4876731;29;20064;-80
2022/04/17 21:27:25;;;;;;;6.43;4.38;;;;;;;10.53;45.35;101476.63;4977077;28;20042;-80
2022/04/17 21:33:06;;;;;;;5.75;4.15;;;;;;;10.22;45.58;101473.25;4984446;28;20050;-79
2022/04/17 21:38:57;;;;;;;6.95;4.60;;;;;;;10.57;43.49;101464.09;4875409;29;20132;-82
2022/04/17 21:41:29;;;;;;;7.80;4.43;;;;;;;10.67;43.30;101467.56;4930486;29;20047;-79
2022/04/17 21:44:08;;;;;;;8.23;4.63;;;;;;;10.64;44.05;101470.44;4940920;29;20440;-80